Gildeskaal — LLDI — position and weather

sailwx.info

Track history (hours):
 
Tides and Currents Weather Stations Pressure Air Temp Water Temp Dewpoint Dewpoint Depression Visibility Wind Speed Wind Dir Waves Ship Positions

Gildeskaal

Last reported at 2015-Apr-01 12:34 UTC. Time now 2015-Apr-01 13:10 UTC.
Position N 67°08' E 013°59'.

Length 52 m; draft 3.2 m.

Type: Ship. MMSI: 259680000.

Date/timePositionNaut miles runAvg speedWind from/ knotsBaromVisibWave heightAir tempDewpointWater temp
2015-Apr-01 12:34N 67°08' E 013°59'0 0.0
2015-Apr-01 11:33N 67°08' E 013°59'3 3.3
2015-Apr-01 10:32N 67°05' E 014°01'1 1.0
2015-Apr-01 09:34N 67°05' E 013°59'3 2.7
2015-Apr-01 08:33N 67°08' E 013°59'1 1.2
2015-Apr-01 07:33N 67°07' E 013°59'2 1.1
2015-Apr-01 05:27N 67°05' E 014°02'3 3.8
2015-Apr-01 04:34N 67°08' E 013°59'0 0.0
2015-Apr-01 03:34N 67°08' E 013°59'0 0.0
2015-Apr-01 02:34N 67°08' E 013°59'0 0.0
2015-Apr-01 01:33N 67°08' E 013°59'0 0.0
2015-Apr-01 00:33N 67°08' E 013°59'0 0.0
2015-Mar-31 23:33N 67°08' E 013°59'0 0.0
2015-Mar-31 22:33N 67°08' E 013°59'0 0.0
2015-Mar-31 21:33N 67°08' E 013°59'0 0.0
2015-Mar-31 20:33N 67°08' E 013°59'0 0.0
2015-Mar-31 19:33N 67°08' E 013°59'3 3.2
2015-Mar-31 18:29N 67°05' E 014°02'0 0.3
2015-Mar-31 17:30N 67°05' E 014°01'0 0.2
2015-Mar-31 16:33N 67°05' E 014°01'3 3.2
2015-Mar-31 15:33N 67°08' E 013°59'3 3.2
2015-Mar-31 14:28N 67°05' E 014°03'0 0.5
2015-Mar-31 13:33N 67°05' E 014°04'4 4.0
2015-Mar-31 12:34N 67°08' E 013°59'0 0.0
2015-Mar-31 11:34N 67°08' E 013°59'2 2.4
2015-Mar-31 10:33N 67°06' E 013°59'0 0.2
2015-Mar-31 09:33N 67°06' E 013°59'3 2.5
2015-Mar-31 08:34N 67°08' E 013°59'1 0.9
2015-Mar-31 07:33N 67°07' E 013°59'3 1.2
2015-Mar-31 05:28N 67°05' E 014°02'3 3.8
2015-Mar-31 04:33N 67°08' E 013°59'0 0.0
2015-Mar-31 03:33N 67°08' E 013°59'0 0.0
2015-Mar-31 02:33N 67°08' E 013°59'0 0.0
2015-Mar-31 01:33N 67°08' E 013°59'0 0.0
2015-Mar-31 00:33N 67°08' E 013°59'0 0.0
2015-Mar-30 23:33N 67°08' E 013°59'0 0.0
2015-Mar-30 22:34N 67°08' E 013°59'0 0.0
2015-Mar-30 21:33N 67°08' E 013°59'0 0.0
2015-Mar-30 20:33N 67°08' E 013°59'0 0.0
2015-Mar-30 19:34N 67°08' E 013°59'3 2.7
2015-Mar-30 18:17N 67°05' E 014°02'2 3.0
2015-Mar-30 17:33N 67°07' E 013°59'2 1.9
2015-Mar-30 16:33N 67°05' E 014°00'3 3.2
2015-Mar-30 15:33N 67°08' E 013°59'3 3.4
2015-Mar-30 14:32N 67°05' E 014°02'1 0.9
2015-Mar-30 13:24N 67°04' E 014°04'4 5.0
2015-Mar-30 12:33N 67°08' E 013°59'2 0.8
2015-Mar-30 09:33N 67°06' E 013°59'2 2.5
2015-Mar-30 08:34N 67°08' E 013°59'1 1.3
2015-Mar-30 07:33N 67°07' E 013°59'2 1.1
2015-Mar-30 05:32N 67°05' E 014°02'3 3.5
2015-Mar-30 04:33N 67°08' E 013°59'0 0.0
2015-Mar-30 03:34N 67°08' E 013°59'0 0.0
2015-Mar-30 02:33N 67°08' E 013°59'0 0.0
2015-Mar-30 01:33N 67°08' E 013°59'0 0.0
2015-Mar-30 00:34N 67°08' E 013°59'0 0.0
2015-Mar-29 23:33N 67°08' E 013°59'0 0.0
2015-Mar-29 22:34N 67°08' E 013°59'0 0.0
2015-Mar-29 21:33N 67°08' E 013°59'0 0.0
2015-Mar-29 20:34N 67°08' E 013°59'0 0.0
2015-Mar-29 19:33N 67°08' E 013°59'3 1.6
2015-Mar-29 17:29N 67°05' E 014°02'3 2.7
2015-Mar-29 16:34N 67°07' E 013°59'3 2.7
2015-Mar-29 15:28N 67°05' E 014°04'4 4.2
2015-Mar-29 14:33N 67°08' E 013°59'1 1.1
2015-Mar-29 13:33N 67°07' E 013°59'2 0.5
2015-Mar-29 08:22N 67°05' E 014°02'3 3.3
2015-Mar-29 07:33N 67°07' E 013°59'2 0.1
2015-Mar-28 16:33N 67°06' E 013°59'2 1.5
2015-Mar-28 15:25N 67°05' E 014°03'2 0.4
2015-Mar-28 10:33N 67°06' E 013°59'2 2.5
2015-Mar-28 09:33N 67°08' E 013°59'1 1.1
2015-Mar-28 08:33N 67°07' E 013°59'2 2.3
2015-Mar-28 07:31N 67°05' E 014°02'3 3.5
2015-Mar-28 06:33N 67°08' E 013°59'0 0.0
2015-Mar-28 05:33N 67°08' E 013°59'0 0.0
2015-Mar-28 04:33N 67°08' E 013°59'0 0.0
2015-Mar-28 03:34N 67°08' E 013°59'0 0.0
2015-Mar-28 02:33N 67°08' E 013°59'0 0.0
2015-Mar-28 01:34N 67°08' E 013°59'0 0.0
2015-Mar-28 00:34N 67°08' E 013°59'0 0.0
2015-Mar-27 23:34N 67°08' E 013°59'0 0.0
2015-Mar-27 22:33N 67°08' E 013°59'0 0.0
2015-Mar-27 21:33N 67°08' E 013°59'0 0.0
2015-Mar-27 20:34N 67°08' E 013°59'4 3.6
2015-Mar-27 19:29N 67°05' E 014°04'3 3.1
2015-Mar-27 18:33N 67°07' E 013°59'2 0.9
2015-Mar-27 16:34N 67°05' E 013°60'1 0.7
2015-Mar-27 15:33N 67°05' E 014°01'1 0.5
2015-Mar-27 14:31N 67°05' E 014°02'3 3.5
2015-Mar-27 13:33N 67°08' E 013°59'0 0.0
2015-Mar-27 12:33N 67°08' E 013°59'3 3.4
2015-Mar-27 11:33N 67°05' E 014°01'2 1.7
2015-Mar-27 10:34N 67°06' E 013°58'2 2.0
2015-Mar-27 09:33N 67°08' E 013°59'1 0.6
2015-Mar-27 08:33N 67°08' E 013°59'4 3.9
2015-Mar-27 07:33N 67°04' E 014°04'1 1.0
2015-Mar-27 06:33N 67°05' E 014°03'3 3.3
2015-Mar-27 05:33N 67°08' E 013°59'0 0.0
2015-Mar-27 04:33N 67°08' E 013°59'0 0.0
2015-Mar-27 03:33N 67°08' E 013°59'0 0.0
2015-Mar-27 02:33N 67°08' E 013°59'0 0.0
2015-Mar-27 01:34N 67°08' E 013°59'0 0.0
2015-Mar-27 00:34N 67°08' E 013°59'0 0.0
2015-Mar-26 23:34N 67°08' E 013°59'0 0.0
2015-Mar-26 22:33N 67°08' E 013°59'0 0.0
2015-Mar-26 21:33N 67°08' E 013°59'0 0.0
2015-Mar-26 20:33N 67°08' E 013°59'4 3.6
2015-Mar-26 19:29N 67°05' E 014°04'3 3.3
2015-Mar-26 18:33N 67°07' E 013°59'2 2.0
2015-Mar-26 17:34N 67°05' E 013°60'3 2.9
2015-Mar-26 16:33N 67°08' E 013°59'3 3.4
2015-Mar-26 15:33N 67°05' E 014°02'0 0.3
2015-Mar-26 14:30N 67°05' E 014°02'3 3.7
2015-Mar-26 13:34N 67°08' E 013°59'0 0.0
2015-Mar-26 12:33N 67°08' E 013°59'3 2.5
2015-Mar-26 11:33N 67°06' E 013°59'0 0.4
2015-Mar-26 10:33N 67°06' E 013°58'2 2.2
2015-Mar-26 09:33N 67°08' E 013°59'1 1.5
2015-Mar-26 08:33N 67°07' E 013°59'2 1.1
2015-Mar-26 06:30N 67°05' E 014°02'3 3.6
2015-Mar-26 05:34N 67°08' E 013°59'0 0.0
2015-Mar-26 04:33N 67°08' E 013°59'0 0.0
2015-Mar-26 03:33N 67°08' E 013°59'0 0.0
2015-Mar-26 02:34N 67°08' E 013°59'0 0.0
2015-Mar-26 01:33N 67°08' E 013°59'0 0.0
2015-Mar-26 00:33N 67°08' E 013°59'0 0.0
2015-Mar-25 23:33N 67°08' E 013°59'0 0.0
2015-Mar-25 22:33N 67°08' E 013°59'0 0.0
2015-Mar-25 21:33N 67°08' E 013°59'0 0.0
2015-Mar-25 20:33N 67°08' E 013°59'4 3.9
2015-Mar-25 19:32N 67°05' E 014°04'3 3.2
2015-Mar-25 18:33N 67°07' E 013°59'2 2.2
2015-Mar-25 17:33N 67°05' E 014°00'3 3.2
2015-Mar-25 16:33N 67°08' E 013°59'3 3.3
2015-Mar-25 15:33N 67°05' E 014°01'0 0.3
2015-Mar-25 14:33N 67°05' E 014°02'3 3.5
2015-Mar-25 13:34N 67°08' E 013°59'0 0.0
2015-Mar-25 12:34N 67°08' E 013°59'2 2.4
2015-Mar-25 11:34N 67°06' E 013°59'0 0.2
2015-Mar-25 10:33N 67°06' E 013°59'3 2.6
2015-Mar-25 09:34N 67°08' E 013°59'1 1.1
2015-Mar-25 08:33N 67°07' E 013°59'2 1.2
2015-Mar-25 06:29N 67°05' E 014°02'3 3.7
2015-Mar-25 05:34N 67°08' E 013°59'0 0.0
2015-Mar-25 04:33N 67°08' E 013°59'0 0.0
2015-Mar-25 03:33N 67°08' E 013°59'0 0.0
2015-Mar-25 02:34N 67°08' E 013°59'0 0.0
2015-Mar-25 01:33N 67°08' E 013°59'0 0.0
2015-Mar-25 00:33N 67°08' E 013°59'0 0.0
2015-Mar-24 23:33N 67°08' E 013°59'0 0.0
2015-Mar-24 22:33N 67°08' E 013°59'0 0.0
2015-Mar-24 21:33N 67°08' E 013°59'0 0.0
2015-Mar-24 20:34N 67°08' E 013°59'4 3.7
2015-Mar-24 19:31N 67°05' E 014°04'3 3.6
2015-Mar-24 18:33N 67°08' E 013°59'3 2.5
2015-Mar-24 17:33N 67°05' E 014°00'3 3.1
2015-Mar-24 16:34N 67°08' E 013°59'3 3.2
2015-Mar-24 15:33N 67°05' E 014°01'1 1.2
2015-Mar-24 14:32N 67°05' E 014°04'4 3.9
2015-Mar-24 13:34N 67°08' E 013°59'0 0.0
2015-Mar-24 12:33N 67°08' E 013°59'3 3.4
2015-Mar-24 11:34N 67°05' E 014°01'1 1.4
2015-Mar-24 10:33N 67°06' E 013°59'2 2.3
2015-Mar-24 09:34N 67°08' E 013°59'1 1.4
2015-Mar-24 08:34N 67°07' E 013°59'2 1.1
2015-Mar-24 06:31N 67°05' E 014°03'3 3.3
2015-Mar-24 05:34N 67°08' E 013°59'0 0.0
2015-Mar-24 04:33N 67°08' E 013°59'0 0.0
2015-Mar-24 03:33N 67°08' E 013°59'0 0.0
2015-Mar-24 02:33N 67°08' E 013°59'0 0.0
2015-Mar-24 01:34N 67°08' E 013°59'0 0.0
2015-Mar-24 00:33N 67°08' E 013°59'0 0.0
2015-Mar-23 23:34N 67°08' E 013°59'0 0.0
2015-Mar-23 22:34N 67°08' E 013°59'0 0.0
2015-Mar-23 21:33N 67°08' E 013°59'0 0.0
2015-Mar-23 20:34N 67°08' E 013°59'4 3.7
2015-Mar-23 19:26N 67°05' E 014°04'3 3.8
2015-Mar-23 18:33N 67°07' E 013°59'2 2.1
2015-Mar-23 17:33N 67°05' E 014°00'3 3.2
2015-Mar-23 16:33N 67°08' E 013°59'3 3.4
2015-Mar-23 15:33N 67°05' E 014°01'1 0.8
2015-Mar-23 14:17N 67°05' E 014°04'4 5.7
2015-Mar-23 13:34N 67°08' E 013°59'2 0.8
2015-Mar-23 10:34N 67°06' E 013°59'2 2.4
2015-Mar-23 09:34N 67°08' E 013°59'1 1.1
2015-Mar-23 08:34N 67°07' E 013°59'2 1.2
2015-Mar-23 06:29N 67°05' E 014°02'3 3.8
2015-Mar-23 05:34N 67°08' E 013°59'0 0.0
2015-Mar-23 04:34N 67°08' E 013°59'0 0.0
2015-Mar-23 03:33N 67°08' E 013°59'0 0.0
2015-Mar-23 02:34N 67°08' E 013°59'0 0.0
2015-Mar-23 01:34N 67°08' E 013°59'0 0.0
2015-Mar-23 00:34N 67°08' E 013°59'0 0.0
2015-Mar-22 23:34N 67°08' E 013°59'0 0.0
2015-Mar-22 22:34N 67°08' E 013°59'0 0.0
2015-Mar-22 21:33N 67°08' E 013°59'0 0.0
2015-Mar-22 20:34N 67°08' E 013°59'3 1.6
2015-Mar-22 18:22N 67°05' E 014°02'3 3.7
2015-Mar-22 17:34N 67°08' E 013°59'4 3.7
2015-Mar-22 16:30N 67°04' E 014°04'4 4.6
2015-Mar-22 15:34N 67°08' E 013°59'1 0.6
2015-Mar-22 14:34N 67°08' E 013°59'4 3.8
2015-Mar-22 13:33N 67°04' E 014°04'  
Track history (hours):
 
Tides and Currents Weather Stations Pressure Air Temp Water Temp Dewpoint Dewpoint Depression Visibility Wind Speed Wind Dir Waves Ship Positions

Gildeskaal

Last reported at 2015-Apr-01 12:34 UTC. Time now 2015-Apr-01 13:10 UTC.
Position N 67°08' E 013°59'.

Length 52 m; draft 3.2 m.

Type: Ship. MMSI: 259680000.

Date/timePositionNaut miles runAvg speedWind from/ knotsBaromVisibWave heightAir tempDewpointWater temp
2015-Apr-01 12:34N 67°08' E 013°59'0 0.0
2015-Apr-01 11:33N 67°08' E 013°59'3 3.3
2015-Apr-01 10:32N 67°05' E 014°01'1 1.0
2015-Apr-01 09:34N 67°05' E 013°59'3 2.7
2015-Apr-01 08:33N 67°08' E 013°59'1 1.2
2015-Apr-01 07:33N 67°07' E 013°59'2 1.1
2015-Apr-01 05:27N 67°05' E 014°02'3 3.8
2015-Apr-01 04:34N 67°08' E 013°59'0 0.0
2015-Apr-01 03:34N 67°08' E 013°59'0 0.0
2015-Apr-01 02:34N 67°08' E 013°59'0 0.0
2015-Apr-01 01:33N 67°08' E 013°59'0 0.0
2015-Apr-01 00:33N 67°08' E 013°59'0 0.0
2015-Mar-31 23:33N 67°08' E 013°59'0 0.0
2015-Mar-31 22:33N 67°08' E 013°59'0 0.0
2015-Mar-31 21:33N 67°08' E 013°59'0 0.0
2015-Mar-31 20:33N 67°08' E 013°59'0 0.0
2015-Mar-31 19:33N 67°08' E 013°59'3 3.2
2015-Mar-31 18:29N 67°05' E 014°02'0 0.3
2015-Mar-31 17:30N 67°05' E 014°01'0 0.2
2015-Mar-31 16:33N 67°05' E 014°01'3 3.2
2015-Mar-31 15:33N 67°08' E 013°59'3 3.2
2015-Mar-31 14:28N 67°05' E 014°03'0 0.5
2015-Mar-31 13:33N 67°05' E 014°04'4 4.0
2015-Mar-31 12:34N 67°08' E 013°59'0 0.0
2015-Mar-31 11:34N 67°08' E 013°59'2 2.4
2015-Mar-31 10:33N 67°06' E 013°59'0 0.2
2015-Mar-31 09:33N 67°06' E 013°59'3 2.5
2015-Mar-31 08:34N 67°08' E 013°59'1 0.9
2015-Mar-31 07:33N 67°07' E 013°59'3 1.2
2015-Mar-31 05:28N 67°05' E 014°02'3 3.8
2015-Mar-31 04:33N 67°08' E 013°59'0 0.0
2015-Mar-31 03:33N 67°08' E 013°59'0 0.0
2015-Mar-31 02:33N 67°08' E 013°59'0 0.0
2015-Mar-31 01:33N 67°08' E 013°59'0 0.0
2015-Mar-31 00:33N 67°08' E 013°59'0 0.0
2015-Mar-30 23:33N 67°08' E 013°59'0 0.0
2015-Mar-30 22:34N 67°08' E 013°59'0 0.0
2015-Mar-30 21:33N 67°08' E 013°59'0 0.0
2015-Mar-30 20:33N 67°08' E 013°59'0 0.0
2015-Mar-30 19:34N 67°08' E 013°59'3 2.7
2015-Mar-30 18:17N 67°05' E 014°02'2 3.0
2015-Mar-30 17:33N 67°07' E 013°59'2 1.9
2015-Mar-30 16:33N 67°05' E 014°00'3 3.2
2015-Mar-30 15:33N 67°08' E 013°59'3 3.4
2015-Mar-30 14:32N 67°05' E 014°02'1 0.9
2015-Mar-30 13:24N 67°04' E 014°04'4 5.0
2015-Mar-30 12:33N 67°08' E 013°59'2 0.8
2015-Mar-30 09:33N 67°06' E 013°59'2 2.5
2015-Mar-30 08:34N 67°08' E 013°59'1 1.3
2015-Mar-30 07:33N 67°07' E 013°59'2 1.1
2015-Mar-30 05:32N 67°05' E 014°02'3 3.5
2015-Mar-30 04:33N 67°08' E 013°59'0 0.0
2015-Mar-30 03:34N 67°08' E 013°59'0 0.0
2015-Mar-30 02:33N 67°08' E 013°59'0 0.0
2015-Mar-30 01:33N 67°08' E 013°59'0 0.0
2015-Mar-30 00:34N 67°08' E 013°59'0 0.0
2015-Mar-29 23:33N 67°08' E 013°59'0 0.0
2015-Mar-29 22:34N 67°08' E 013°59'0 0.0
2015-Mar-29 21:33N 67°08' E 013°59'0 0.0
2015-Mar-29 20:34N 67°08' E 013°59'0 0.0
2015-Mar-29 19:33N 67°08' E 013°59'3 1.6
2015-Mar-29 17:29N 67°05' E 014°02'3 2.7
2015-Mar-29 16:34N 67°07' E 013°59'3 2.7
2015-Mar-29 15:28N 67°05' E 014°04'4 4.2
2015-Mar-29 14:33N 67°08' E 013°59'1 1.1
2015-Mar-29 13:33N 67°07' E 013°59'2 0.5
2015-Mar-29 08:22N 67°05' E 014°02'3 3.3
2015-Mar-29 07:33N 67°07' E 013°59'2 0.1
2015-Mar-28 16:33N 67°06' E 013°59'2 1.5
2015-Mar-28 15:25N 67°05' E 014°03'2 0.4
2015-Mar-28 10:33N 67°06' E 013°59'2 2.5
2015-Mar-28 09:33N 67°08' E 013°59'1 1.1
2015-Mar-28 08:33N 67°07' E 013°59'2 2.3
2015-Mar-28 07:31N 67°05' E 014°02'3 3.5
2015-Mar-28 06:33N 67°08' E 013°59'0 0.0
2015-Mar-28 05:33N 67°08' E 013°59'0 0.0
2015-Mar-28 04:33N 67°08' E 013°59'0 0.0
2015-Mar-28 03:34N 67°08' E 013°59'0 0.0
2015-Mar-28 02:33N 67°08' E 013°59'0 0.0
2015-Mar-28 01:34N 67°08' E 013°59'0 0.0
2015-Mar-28 00:34N 67°08' E 013°59'0 0.0
2015-Mar-27 23:34N 67°08' E 013°59'0 0.0
2015-Mar-27 22:33N 67°08' E 013°59'0 0.0
2015-Mar-27 21:33N 67°08' E 013°59'0 0.0
2015-Mar-27 20:34N 67°08' E 013°59'4 3.6
2015-Mar-27 19:29N 67°05' E 014°04'3 3.1
2015-Mar-27 18:33N 67°07' E 013°59'2 0.9
2015-Mar-27 16:34N 67°05' E 013°60'1 0.7
2015-Mar-27 15:33N 67°05' E 014°01'1 0.5
2015-Mar-27 14:31N 67°05' E 014°02'3 3.5
2015-Mar-27 13:33N 67°08' E 013°59'0 0.0
2015-Mar-27 12:33N 67°08' E 013°59'3 3.4
2015-Mar-27 11:33N 67°05' E 014°01'2 1.7
2015-Mar-27 10:34N 67°06' E 013°58'2 2.0
2015-Mar-27 09:33N 67°08' E 013°59'1 0.6
2015-Mar-27 08:33N 67°08' E 013°59'4 3.9
2015-Mar-27 07:33N 67°04' E 014°04'1 1.0
2015-Mar-27 06:33N 67°05' E 014°03'3 3.3
2015-Mar-27 05:33N 67°08' E 013°59'0 0.0
2015-Mar-27 04:33N 67°08' E 013°59'0 0.0
2015-Mar-27 03:33N 67°08' E 013°59'0 0.0
2015-Mar-27 02:33N 67°08' E 013°59'0 0.0
2015-Mar-27 01:34N 67°08' E 013°59'0 0.0
2015-Mar-27 00:34N 67°08' E 013°59'0 0.0
2015-Mar-26 23:34N 67°08' E 013°59'0 0.0
2015-Mar-26 22:33N 67°08' E 013°59'0 0.0
2015-Mar-26 21:33N 67°08' E 013°59'0 0.0
2015-Mar-26 20:33N 67°08' E 013°59'4 3.6
2015-Mar-26 19:29N 67°05' E 014°04'3 3.3
2015-Mar-26 18:33N 67°07' E 013°59'2 2.0
2015-Mar-26 17:34N 67°05' E 013°60'3 2.9
2015-Mar-26 16:33N 67°08' E 013°59'3 3.4
2015-Mar-26 15:33N 67°05' E 014°02'0 0.3
2015-Mar-26 14:30N 67°05' E 014°02'3 3.7
2015-Mar-26 13:34N 67°08' E 013°59'0 0.0
2015-Mar-26 12:33N 67°08' E 013°59'3 2.5
2015-Mar-26 11:33N 67°06' E 013°59'0 0.4
2015-Mar-26 10:33N 67°06' E 013°58'2 2.2
2015-Mar-26 09:33N 67°08' E 013°59'1 1.5
2015-Mar-26 08:33N 67°07' E 013°59'2 1.1
2015-Mar-26 06:30N 67°05' E 014°02'3 3.6
2015-Mar-26 05:34N 67°08' E 013°59'0 0.0
2015-Mar-26 04:33N 67°08' E 013°59'0 0.0
2015-Mar-26 03:33N 67°08' E 013°59'0 0.0
2015-Mar-26 02:34N 67°08' E 013°59'0 0.0
2015-Mar-26 01:33N 67°08' E 013°59'0 0.0
2015-Mar-26 00:33N 67°08' E 013°59'0 0.0
2015-Mar-25 23:33N 67°08' E 013°59'0 0.0
2015-Mar-25 22:33N 67°08' E 013°59'0 0.0
2015-Mar-25 21:33N 67°08' E 013°59'0 0.0
2015-Mar-25 20:33N 67°08' E 013°59'4 3.9
2015-Mar-25 19:32N 67°05' E 014°04'3 3.2
2015-Mar-25 18:33N 67°07' E 013°59'2 2.2
2015-Mar-25 17:33N 67°05' E 014°00'3 3.2
2015-Mar-25 16:33N 67°08' E 013°59'3 3.3
2015-Mar-25 15:33N 67°05' E 014°01'0 0.3
2015-Mar-25 14:33N 67°05' E 014°02'3 3.5
2015-Mar-25 13:34N 67°08' E 013°59'0 0.0
2015-Mar-25 12:34N 67°08' E 013°59'2 2.4
2015-Mar-25 11:34N 67°06' E 013°59'0 0.2
2015-Mar-25 10:33N 67°06' E 013°59'3 2.6
2015-Mar-25 09:34N 67°08' E 013°59'1 1.1
2015-Mar-25 08:33N 67°07' E 013°59'2 1.2
2015-Mar-25 06:29N 67°05' E 014°02'3 3.7
2015-Mar-25 05:34N 67°08' E 013°59'0 0.0
2015-Mar-25 04:33N 67°08' E 013°59'0 0.0
2015-Mar-25 03:33N 67°08' E 013°59'0 0.0
2015-Mar-25 02:34N 67°08' E 013°59'0 0.0
2015-Mar-25 01:33N 67°08' E 013°59'0 0.0
2015-Mar-25 00:33N 67°08' E 013°59'0 0.0
2015-Mar-24 23:33N 67°08' E 013°59'0 0.0
2015-Mar-24 22:33N 67°08' E 013°59'0 0.0
2015-Mar-24 21:33N 67°08' E 013°59'0 0.0
2015-Mar-24 20:34N 67°08' E 013°59'4 3.7
2015-Mar-24 19:31N 67°05' E 014°04'3 3.6
2015-Mar-24 18:33N 67°08' E 013°59'3 2.5
2015-Mar-24 17:33N 67°05' E 014°00'3 3.1
2015-Mar-24 16:34N 67°08' E 013°59'3 3.2
2015-Mar-24 15:33N 67°05' E 014°01'1 1.2
2015-Mar-24 14:32N 67°05' E 014°04'4 3.9
2015-Mar-24 13:34N 67°08' E 013°59'0 0.0
2015-Mar-24 12:33N 67°08' E 013°59'3 3.4
2015-Mar-24 11:34N 67°05' E 014°01'1 1.4
2015-Mar-24 10:33N 67°06' E 013°59'2 2.3
2015-Mar-24 09:34N 67°08' E 013°59'1 1.4
2015-Mar-24 08:34N 67°07' E 013°59'2 1.1
2015-Mar-24 06:31N 67°05' E 014°03'3 3.3
2015-Mar-24 05:34N 67°08' E 013°59'0 0.0
2015-Mar-24 04:33N 67°08' E 013°59'0 0.0
2015-Mar-24 03:33N 67°08' E 013°59'0 0.0
2015-Mar-24 02:33N 67°08' E 013°59'0 0.0
2015-Mar-24 01:34N 67°08' E 013°59'0 0.0
2015-Mar-24 00:33N 67°08' E 013°59'0 0.0
2015-Mar-23 23:34N 67°08' E 013°59'0 0.0
2015-Mar-23 22:34N 67°08' E 013°59'0 0.0
2015-Mar-23 21:33N 67°08' E 013°59'0 0.0
2015-Mar-23 20:34N 67°08' E 013°59'4 3.7
2015-Mar-23 19:26N 67°05' E 014°04'3 3.8
2015-Mar-23 18:33N 67°07' E 013°59'2 2.1
2015-Mar-23 17:33N 67°05' E 014°00'3 3.2
2015-Mar-23 16:33N 67°08' E 013°59'3 3.4
2015-Mar-23 15:33N 67°05' E 014°01'1 0.8
2015-Mar-23 14:17N 67°05' E 014°04'4 5.7
2015-Mar-23 13:34N 67°08' E 013°59'2 0.8
2015-Mar-23 10:34N 67°06' E 013°59'2 2.4
2015-Mar-23 09:34N 67°08' E 013°59'1 1.1
2015-Mar-23 08:34N 67°07' E 013°59'2 1.2
2015-Mar-23 06:29N 67°05' E 014°02'3 3.8
2015-Mar-23 05:34N 67°08' E 013°59'0 0.0
2015-Mar-23 04:34N 67°08' E 013°59'0 0.0
2015-Mar-23 03:33N 67°08' E 013°59'0 0.0
2015-Mar-23 02:34N 67°08' E 013°59'0 0.0
2015-Mar-23 01:34N 67°08' E 013°59'0 0.0
2015-Mar-23 00:34N 67°08' E 013°59'0 0.0
2015-Mar-22 23:34N 67°08' E 013°59'0 0.0
2015-Mar-22 22:34N 67°08' E 013°59'0 0.0
2015-Mar-22 21:33N 67°08' E 013°59'0 0.0
2015-Mar-22 20:34N 67°08' E 013°59'3 1.6
2015-Mar-22 18:22N 67°05' E 014°02'3 3.7
2015-Mar-22 17:34N 67°08' E 013°59'4 3.7
2015-Mar-22 16:30N 67°04' E 014°04'4 4.6
2015-Mar-22 15:34N 67°08' E 013°59'1 0.6
2015-Mar-22 14:34N 67°08' E 013°59'4 3.8
2015-Mar-22 13:33N 67°04' E 014°04'  

Dump ship's entire track history